الصفحة الرئيسية
METAR-TAF:

METAR-TAF

مطار :

مقاطعة ستانتون, كانساس, الولايات المتحدة

دائرة عرض: 37-35-07N, خط طول: 101-43-56W, ارتفاع: 1013 متر

مراقبة الطقس الحالي

تاريخ ووقت الإصدار 20 دقيقة قبل الساعة 02:15UTC
ريح 7 عقدة من الجنوب الشرقي
درجة الحرارة 24°درجة مئوية
الرطوبة 54%
ضغط 1013 hPa
الرؤية: 16.1 كم
سماء صافية

METAR: KJHN 260215Z AUTO 14007KT 10SM CLR 24/14 A2990 RMK AO2 T02420142

زمن: 21:35 (02:35 UTC)


TAF: مفقودة

أرصاد الطقس والتوقعات من أكثر من 4000 مطار (تقارير الطقس للمطار METAR والتنبؤ بالطقس بالمطارTAF).

المحطات المتاحة هي النقط الصفراء والحمراء على الخريطة.

حرك المؤشر فوق النقطة لمعرفة اسم المحطة.

ثم انقر لمعرفة أرصاد وتوقعات الطقس.

لتغيير الخارطة: اضغط على الأزرار الخضراء مع رمز الصليب الأسود للتكبير. على الزر الأخضر مع شرطة للتصغير، أو على الأسهم الخضراء للخرائط المجاورة.


METAR-TAF: